sensor_id;sensor_type;location;lat;lon;timestamp;temperature;humidity
45104;DHT22;30865;51.288;4.572;2023-06-14T00:00:31;16.30;54.00
45104;DHT22;30865;51.288;4.572;2023-06-14T00:02:56;16.30;53.80
45104;DHT22;30865;51.288;4.572;2023-06-14T00:05:23;16.30;53.40
45104;DHT22;30865;51.288;4.572;2023-06-14T00:07:49;16.30;53.30
45104;DHT22;30865;51.288;4.572;2023-06-14T00:10:18;16.20;53.70
45104;DHT22;30865;51.288;4.572;2023-06-14T00:12:44;16.20;55.20
45104;DHT22;30865;51.288;4.572;2023-06-14T00:15:10;16.10;55.50
45104;DHT22;30865;51.288;4.572;2023-06-14T00:17:36;16.20;55.60
45104;DHT22;30865;51.288;4.572;2023-06-14T00:20:03;16.20;55.50
45104;DHT22;30865;51.288;4.572;2023-06-14T00:22:32;16.20;55.50
45104;DHT22;30865;51.288;4.572;2023-06-14T00:24:58;16.20;55.00
45104;DHT22;30865;51.288;4.572;2023-06-14T00:27:23;16.20;54.50
45104;DHT22;30865;51.288;4.572;2023-06-14T00:29:50;16.20;54.40
45104;DHT22;30865;51.288;4.572;2023-06-14T00:32:15;16.20;54.30
45104;DHT22;30865;51.288;4.572;2023-06-14T00:34:41;16.20;54.30
45104;DHT22;30865;51.288;4.572;2023-06-14T00:37:06;16.20;54.60
45104;DHT22;30865;51.288;4.572;2023-06-14T00:39:32;16.20;54.90
45104;DHT22;30865;51.288;4.572;2023-06-14T00:41:57;16.10;55.10
45104;DHT22;30865;51.288;4.572;2023-06-14T00:44:24;16.00;55.40
45104;DHT22;30865;51.288;4.572;2023-06-14T00:46:50;16.00;55.80
45104;DHT22;30865;51.288;4.572;2023-06-14T00:49:16;16.00;55.80
45104;DHT22;30865;51.288;4.572;2023-06-14T00:51:42;16.10;55.70
45104;DHT22;30865;51.288;4.572;2023-06-14T00:54:08;16.00;56.00
45104;DHT22;30865;51.288;4.572;2023-06-14T00:56:37;16.00;56.20
45104;DHT22;30865;51.288;4.572;2023-06-14T00:59:03;15.90;56.10
45104;DHT22;30865;51.288;4.572;2023-06-14T01:01:30;15.80;56.80
45104;DHT22;30865;51.288;4.572;2023-06-14T01:03:58;15.80;57.00
45104;DHT22;30865;51.288;4.572;2023-06-14T01:06:33;15.60;56.80
45104;DHT22;30865;51.288;4.572;2023-06-14T01:09:09;15.50;57.20
45104;DHT22;30865;51.288;4.572;2023-06-14T01:11:59;15.50;57.40
45104;DHT22;30865;51.288;4.572;2023-06-14T01:14:27;15.50;57.70
45104;DHT22;30865;51.288;4.572;2023-06-14T01:16:55;15.50;57.70
45104;DHT22;30865;51.288;4.572;2023-06-14T01:19:22;15.50;57.90
45104;DHT22;30865;51.288;4.572;2023-06-14T01:21:51;15.50;58.20
45104;DHT22;30865;51.288;4.572;2023-06-14T01:24:17;15.40;58.00
45104;DHT22;30865;51.288;4.572;2023-06-14T01:26:45;15.30;58.30
45104;DHT22;30865;51.288;4.572;2023-06-14T01:29:13;15.30;58.70
45104;DHT22;30865;51.288;4.572;2023-06-14T01:31:43;15.20;58.70
45104;DHT22;30865;51.288;4.572;2023-06-14T01:34:09;15.20;59.00
45104;DHT22;30865;51.288;4.572;2023-06-14T01:36:36;15.30;59.30
45104;DHT22;30865;51.288;4.572;2023-06-14T01:39:05;15.30;59.70
45104;DHT22;30865;51.288;4.572;2023-06-14T01:41:31;15.20;60.30
45104;DHT22;30865;51.288;4.572;2023-06-14T01:43:58;15.20;61.00
45104;DHT22;30865;51.288;4.572;2023-06-14T01:46:25;15.20;61.80
45104;DHT22;30865;51.288;4.572;2023-06-14T01:48:53;15.10;62.20
45104;DHT22;30865;51.288;4.572;2023-06-14T01:51:19;15.10;62.50
45104;DHT22;30865;51.288;4.572;2023-06-14T01:53:45;15.00;62.20
45104;DHT22;30865;51.288;4.572;2023-06-14T01:56:12;15.00;62.30
45104;DHT22;30865;51.288;4.572;2023-06-14T01:58:37;15.00;62.30
45104;DHT22;30865;51.288;4.572;2023-06-14T02:01:03;15.00;62.30
45104;DHT22;30865;51.288;4.572;2023-06-14T02:03:28;15.00;62.20
45104;DHT22;30865;51.288;4.572;2023-06-14T02:05:54;15.00;61.80
45104;DHT22;30865;51.288;4.572;2023-06-14T02:08:20;14.80;62.70
45104;DHT22;30865;51.288;4.572;2023-06-14T02:10:46;14.70;64.20
45104;DHT22;30865;51.288;4.572;2023-06-14T02:13:11;14.60;65.40
45104;DHT22;30865;51.288;4.572;2023-06-14T02:15:37;14.70;65.20
45104;DHT22;30865;51.288;4.572;2023-06-14T02:18:03;14.50;65.10
45104;DHT22;30865;51.288;4.572;2023-06-14T02:20:29;14.60;64.40
45104;DHT22;30865;51.288;4.572;2023-06-14T02:22:55;14.50;63.70
45104;DHT22;30865;51.288;4.572;2023-06-14T02:25:21;14.40;64.50
45104;DHT22;30865;51.288;4.572;2023-06-14T02:27:46;14.40;65.50
45104;DHT22;30865;51.288;4.572;2023-06-14T02:30:12;14.20;66.20
45104;DHT22;30865;51.288;4.572;2023-06-14T02:32:38;14.20;66.40
45104;DHT22;30865;51.288;4.572;2023-06-14T02:35:04;14.10;66.80
45104;DHT22;30865;51.288;4.572;2023-06-14T02:37:29;14.10;67.20
45104;DHT22;30865;51.288;4.572;2023-06-14T02:39:55;14.00;67.20
45104;DHT22;30865;51.288;4.572;2023-06-14T02:42:21;14.00;67.80
45104;DHT22;30865;51.288;4.572;2023-06-14T02:44:46;14.00;67.80
45104;DHT22;30865;51.288;4.572;2023-06-14T02:47:19;14.10;68.00
45104;DHT22;30865;51.288;4.572;2023-06-14T02:49:45;14.20;68.10
45104;DHT22;30865;51.288;4.572;2023-06-14T02:52:13;14.10;68.10
45104;DHT22;30865;51.288;4.572;2023-06-14T02:54:39;14.00;69.20
45104;DHT22;30865;51.288;4.572;2023-06-14T02:57:05;14.00;69.90
45104;DHT22;30865;51.288;4.572;2023-06-14T02:59:33;14.00;70.10
45104;DHT22;30865;51.288;4.572;2023-06-14T03:01:59;14.00;70.10
45104;DHT22;30865;51.288;4.572;2023-06-14T03:04:25;14.10;69.90
45104;DHT22;30865;51.288;4.572;2023-06-14T03:06:51;14.10;70.30
45104;DHT22;30865;51.288;4.572;2023-06-14T03:09:17;14.00;70.70
45104;DHT22;30865;51.288;4.572;2023-06-14T03:11:42;14.00;71.00
45104;DHT22;30865;51.288;4.572;2023-06-14T03:14:08;14.00;71.50
45104;DHT22;30865;51.288;4.572;2023-06-14T03:16:34;14.00;71.50
45104;DHT22;30865;51.288;4.572;2023-06-14T03:19:00;14.10;71.50
45104;DHT22;30865;51.288;4.572;2023-06-14T03:21:25;14.10;71.70
45104;DHT22;30865;51.288;4.572;2023-06-14T03:23:51;14.10;72.00
45104;DHT22;30865;51.288;4.572;2023-06-14T03:26:18;14.10;71.80
45104;DHT22;30865;51.288;4.572;2023-06-14T03:28:47;14.10;72.00
45104;DHT22;30865;51.288;4.572;2023-06-14T03:31:13;14.10;71.60
45104;DHT22;30865;51.288;4.572;2023-06-14T03:33:39;14.00;72.60
45104;DHT22;30865;51.288;4.572;2023-06-14T03:36:05;13.90;74.20
45104;DHT22;30865;51.288;4.572;2023-06-14T03:38:32;13.80;75.20
45104;DHT22;30865;51.288;4.572;2023-06-14T03:40:57;13.80;74.80
45104;DHT22;30865;51.288;4.572;2023-06-14T03:43:23;13.90;74.20
45104;DHT22;30865;51.288;4.572;2023-06-14T03:45:48;14.00;74.20
45104;DHT22;30865;51.288;4.572;2023-06-14T03:48:14;14.00;75.00
45104;DHT22;30865;51.288;4.572;2023-06-14T03:50:40;13.90;76.40
45104;DHT22;30865;51.288;4.572;2023-06-14T03:53:08;13.80;76.30
45104;DHT22;30865;51.288;4.572;2023-06-14T03:55:33;13.80;76.10
45104;DHT22;30865;51.288;4.572;2023-06-14T03:57:59;13.90;76.00
45104;DHT22;30865;51.288;4.572;2023-06-14T04:00:25;14.00;75.60
45104;DHT22;30865;51.288;4.572;2023-06-14T04:02:51;14.00;76.40
45104;DHT22;30865;51.288;4.572;2023-06-14T04:05:17;13.90;76.50
45104;DHT22;30865;51.288;4.572;2023-06-14T04:07:44;13.80;77.00
45104;DHT22;30865;51.288;4.572;2023-06-14T04:10:12;13.80;77.30
45104;DHT22;30865;51.288;4.572;2023-06-14T04:12:38;13.90;77.70
45104;DHT22;30865;51.288;4.572;2023-06-14T04:15:03;13.80;78.00
45104;DHT22;30865;51.288;4.572;2023-06-14T04:17:32;13.80;78.30
45104;DHT22;30865;51.288;4.572;2023-06-14T04:19:58;13.90;78.00
45104;DHT22;30865;51.288;4.572;2023-06-14T04:22:25;14.00;77.80
45104;DHT22;30865;51.288;4.572;2023-06-14T04:24:54;14.00;77.60
45104;DHT22;30865;51.288;4.572;2023-06-14T04:27:25;14.10;76.80
45104;DHT22;30865;51.288;4.572;2023-06-14T04:29:52;14.00;78.20
45104;DHT22;30865;51.288;4.572;2023-06-14T04:32:25;14.00;78.50
45104;DHT22;30865;51.288;4.572;2023-06-14T04:34:54;14.00;78.50
45104;DHT22;30865;51.288;4.572;2023-06-14T04:37:21;14.10;78.60
45104;DHT22;30865;51.288;4.572;2023-06-14T04:39:47;14.20;78.30
45104;DHT22;30865;51.288;4.572;2023-06-14T04:42:13;14.30;77.70
45104;DHT22;30865;51.288;4.572;2023-06-14T04:44:41;14.40;78.00
45104;DHT22;30865;51.288;4.572;2023-06-14T04:47:07;14.50;77.80
45104;DHT22;30865;51.288;4.572;2023-06-14T04:49:32;14.60;77.30
45104;DHT22;30865;51.288;4.572;2023-06-14T04:52:00;14.60;77.60
45104;DHT22;30865;51.288;4.572;2023-06-14T04:54:26;14.50;78.00
45104;DHT22;30865;51.288;4.572;2023-06-14T04:56:52;14.80;77.30
45104;DHT22;30865;51.288;4.572;2023-06-14T04:59:20;14.90;76.60
45104;DHT22;30865;51.288;4.572;2023-06-14T05:01:48;15.00;75.60
45104;DHT22;30865;51.288;4.572;2023-06-14T05:04:15;15.20;74.50
45104;DHT22;30865;51.288;4.572;2023-06-14T05:06:42;15.30;74.50
45104;DHT22;30865;51.288;4.572;2023-06-14T05:09:07;15.40;74.70
45104;DHT22;30865;51.288;4.572;2023-06-14T05:11:33;15.60;73.60
45104;DHT22;30865;51.288;4.572;2023-06-14T05:13:58;15.50;73.70
45104;DHT22;30865;51.288;4.572;2023-06-14T05:16:24;15.60;72.50
45104;DHT22;30865;51.288;4.572;2023-06-14T05:18:50;15.60;71.50
45104;DHT22;30865;51.288;4.572;2023-06-14T05:21:17;15.90;71.10
45104;DHT22;30865;51.288;4.572;2023-06-14T05:23:44;16.00;70.50
45104;DHT22;30865;51.288;4.572;2023-06-14T05:26:11;16.30;69.50
45104;DHT22;30865;51.288;4.572;2023-06-14T05:28:36;16.30;68.70
45104;DHT22;30865;51.288;4.572;2023-06-14T05:31:02;16.30;68.70
45104;DHT22;30865;51.288;4.572;2023-06-14T05:33:28;16.60;68.40
45104;DHT22;30865;51.288;4.572;2023-06-14T05:35:54;16.60;66.80
45104;DHT22;30865;51.288;4.572;2023-06-14T05:38:20;16.80;63.70
45104;DHT22;30865;51.288;4.572;2023-06-14T05:40:46;17.00;61.80
45104;DHT22;30865;51.288;4.572;2023-06-14T05:43:11;16.90;62.70
45104;DHT22;30865;51.288;4.572;2023-06-14T05:45:37;16.80;61.80
45104;DHT22;30865;51.288;4.572;2023-06-14T05:48:02;17.00;61.60
45104;DHT22;30865;51.288;4.572;2023-06-14T05:50:28;17.10;62.30
45104;DHT22;30865;51.288;4.572;2023-06-14T05:52:53;17.00;61.50
45104;DHT22;30865;51.288;4.572;2023-06-14T05:55:19;17.00;61.50
45104;DHT22;30865;51.288;4.572;2023-06-14T05:57:45;17.20;61.30
45104;DHT22;30865;51.288;4.572;2023-06-14T06:00:11;17.40;60.50
45104;DHT22;30865;51.288;4.572;2023-06-14T06:02:40;17.30;60.40
45104;DHT22;30865;51.288;4.572;2023-06-14T06:05:06;17.60;60.30
45104;DHT22;30865;51.288;4.572;2023-06-14T06:07:32;17.70;59.90
45104;DHT22;30865;51.288;4.572;2023-06-14T06:09:58;17.90;59.50
45104;DHT22;30865;51.288;4.572;2023-06-14T06:12:23;18.10;59.00
45104;DHT22;30865;51.288;4.572;2023-06-14T06:14:49;18.20;58.80
45104;DHT22;30865;51.288;4.572;2023-06-14T06:17:14;18.30;58.60
45104;DHT22;30865;51.288;4.572;2023-06-14T06:19:40;18.50;58.10
45104;DHT22;30865;51.288;4.572;2023-06-14T06:22:05;18.60;56.80
45104;DHT22;30865;51.288;4.572;2023-06-14T06:24:32;18.70;57.00
45104;DHT22;30865;51.288;4.572;2023-06-14T06:26:57;18.90;56.70
45104;DHT22;30865;51.288;4.572;2023-06-14T06:29:23;18.80;56.20
45104;DHT22;30865;51.288;4.572;2023-06-14T06:31:48;18.90;52.80
45104;DHT22;30865;51.288;4.572;2023-06-14T06:34:14;19.00;52.80
45104;DHT22;30865;51.288;4.572;2023-06-14T06:36:39;19.20;52.60
45104;DHT22;30865;51.288;4.572;2023-06-14T06:39:05;18.90;53.00
45104;DHT22;30865;51.288;4.572;2023-06-14T06:41:38;19.10;54.20
45104;DHT22;30865;51.288;4.572;2023-06-14T06:44:05;19.50;53.40
45104;DHT22;30865;51.288;4.572;2023-06-14T06:46:32;19.40;53.90
45104;DHT22;30865;51.288;4.572;2023-06-14T06:48:58;19.80;53.70
45104;DHT22;30865;51.288;4.572;2023-06-14T06:51:24;19.50;54.00
45104;DHT22;30865;51.288;4.572;2023-06-14T06:53:53;19.60;53.90
45104;DHT22;30865;51.288;4.572;2023-06-14T06:56:19;19.70;54.00
45104;DHT22;30865;51.288;4.572;2023-06-14T06:58:55;20.20;53.20
45104;DHT22;30865;51.288;4.572;2023-06-14T07:01:30;20.20;53.20
45104;DHT22;30865;51.288;4.572;2023-06-14T07:03:59;20.30;53.40
45104;DHT22;30865;51.288;4.572;2023-06-14T07:06:24;20.00;53.50
45104;DHT22;30865;51.288;4.572;2023-06-14T07:08:52;20.00;53.80
45104;DHT22;30865;51.288;4.572;2023-06-14T07:11:18;20.00;53.00
45104;DHT22;30865;51.288;4.572;2023-06-14T07:13:43;20.20;52.20
45104;DHT22;30865;51.288;4.572;2023-06-14T07:16:09;20.50;52.70
45104;DHT22;30865;51.288;4.572;2023-06-14T07:18:34;20.20;50.60
45104;DHT22;30865;51.288;4.572;2023-06-14T07:21:01;20.10;51.00
45104;DHT22;30865;51.288;4.572;2023-06-14T07:23:26;20.30;49.70
45104;DHT22;30865;51.288;4.572;2023-06-14T07:25:52;20.90;49.10
45104;DHT22;30865;51.288;4.572;2023-06-14T07:28:17;20.90;48.50
45104;DHT22;30865;51.288;4.572;2023-06-14T07:30:44;20.90;48.40
45104;DHT22;30865;51.288;4.572;2023-06-14T07:33:09;21.00;48.40
45104;DHT22;30865;51.288;4.572;2023-06-14T07:35:36;21.00;48.30
45104;DHT22;30865;51.288;4.572;2023-06-14T07:38:04;21.10;48.10
45104;DHT22;30865;51.288;4.572;2023-06-14T07:40:29;21.30;47.90
45104;DHT22;30865;51.288;4.572;2023-06-14T07:42:55;21.40;48.10
45104;DHT22;30865;51.288;4.572;2023-06-14T07:45:21;21.30;48.90
45104;DHT22;30865;51.288;4.572;2023-06-14T07:47:46;21.00;48.80
45104;DHT22;30865;51.288;4.572;2023-06-14T07:50:12;21.30;48.70
45104;DHT22;30865;51.288;4.572;2023-06-14T07:52:39;21.20;48.70
45104;DHT22;30865;51.288;4.572;2023-06-14T07:55:05;21.20;49.00
45104;DHT22;30865;51.288;4.572;2023-06-14T07:57:31;21.80;48.30
45104;DHT22;30865;51.288;4.572;2023-06-14T07:59:56;22.10;47.50
45104;DHT22;30865;51.288;4.572;2023-06-14T08:02:22;22.30;46.80
45104;DHT22;30865;51.288;4.572;2023-06-14T08:04:47;22.10;47.30
45104;DHT22;30865;51.288;4.572;2023-06-14T08:07:14;21.90;47.80
45104;DHT22;30865;51.288;4.572;2023-06-14T08:09:39;22.00;47.20
45104;DHT22;30865;51.288;4.572;2023-06-14T08:12:06;22.40;46.90
45104;DHT22;30865;51.288;4.572;2023-06-14T08:14:39;22.30;47.10
45104;DHT22;30865;51.288;4.572;2023-06-14T08:17:04;21.90;46.90
45104;DHT22;30865;51.288;4.572;2023-06-14T08:19:30;22.60;47.10
45104;DHT22;30865;51.288;4.572;2023-06-14T08:21:56;22.70;46.40
45104;DHT22;30865;51.288;4.572;2023-06-14T08:24:22;22.50;46.50
45104;DHT22;30865;51.288;4.572;2023-06-14T08:26:52;22.30;47.30
45104;DHT22;30865;51.288;4.572;2023-06-14T08:29:18;22.50;47.00
45104;DHT22;30865;51.288;4.572;2023-06-14T08:31:43;23.00;47.00
45104;DHT22;30865;51.288;4.572;2023-06-14T08:34:09;23.00;46.50
45104;DHT22;30865;51.288;4.572;2023-06-14T08:36:35;23.20;46.40
45104;DHT22;30865;51.288;4.572;2023-06-14T08:39:01;23.40;46.20
45104;DHT22;30865;51.288;4.572;2023-06-14T08:41:28;23.80;46.40
45104;DHT22;30865;51.288;4.572;2023-06-14T08:43:55;23.70;45.30
45104;DHT22;30865;51.288;4.572;2023-06-14T08:46:22;23.60;45.20
45104;DHT22;30865;51.288;4.572;2023-06-14T08:48:51;24.20;44.00
45104;DHT22;30865;51.288;4.572;2023-06-14T08:51:20;24.40;43.40
45104;DHT22;30865;51.288;4.572;2023-06-14T08:53:53;24.30;43.10
45104;DHT22;30865;51.288;4.572;2023-06-14T08:56:19;24.80;42.80
45104;DHT22;30865;51.288;4.572;2023-06-14T08:58:47;24.50;43.10
45104;DHT22;30865;51.288;4.572;2023-06-14T09:01:13;24.20;43.60
45104;DHT22;30865;51.288;4.572;2023-06-14T09:03:43;24.50;43.00
45104;DHT22;30865;51.288;4.572;2023-06-14T09:06:09;24.80;42.60
45104;DHT22;30865;51.288;4.572;2023-06-14T09:08:42;25.50;41.50
45104;DHT22;30865;51.288;4.572;2023-06-14T09:11:11;25.70;40.90
45104;DHT22;30865;51.288;4.572;2023-06-14T09:13:38;25.20;41.20
45104;DHT22;30865;51.288;4.572;2023-06-14T09:16:04;25.40;41.30
45104;DHT22;30865;51.288;4.572;2023-06-14T09:21:02;25.20;40.90
45104;DHT22;30865;51.288;4.572;2023-06-14T09:23:28;25.30;40.40
45104;DHT22;30865;51.288;4.572;2023-06-14T09:25:54;25.00;40.40
45104;DHT22;30865;51.288;4.572;2023-06-14T09:28:19;24.50;41.20
45104;DHT22;30865;51.288;4.572;2023-06-14T09:30:48;24.70;41.20
45104;DHT22;30865;51.288;4.572;2023-06-14T09:33:17;24.70;41.00
45104;DHT22;30865;51.288;4.572;2023-06-14T09:35:45;25.00;39.30
45104;DHT22;30865;51.288;4.572;2023-06-14T09:38:11;25.00;39.90
45104;DHT22;30865;51.288;4.572;2023-06-14T09:40:37;25.40;40.10
45104;DHT22;30865;51.288;4.572;2023-06-14T09:43:05;25.60;38.30
45104;DHT22;30865;51.288;4.572;2023-06-14T09:45:31;26.00;37.40
45104;DHT22;30865;51.288;4.572;2023-06-14T09:47:58;25.80;36.40
45104;DHT22;30865;51.288;4.572;2023-06-14T09:50:23;25.80;37.10
45104;DHT22;30865;51.288;4.572;2023-06-14T09:52:52;25.60;36.20
45104;DHT22;30865;51.288;4.572;2023-06-14T09:55:19;25.70;35.00
45104;DHT22;30865;51.288;4.572;2023-06-14T09:57:45;26.00;36.30
45104;DHT22;30865;51.288;4.572;2023-06-14T10:00:14;26.00;37.30
45104;DHT22;30865;51.288;4.572;2023-06-14T10:02:42;26.30;35.60
45104;DHT22;30865;51.288;4.572;2023-06-14T10:05:15;26.40;34.50
45104;DHT22;30865;51.288;4.572;2023-06-14T10:07:53;26.30;35.00
45104;DHT22;30865;51.288;4.572;2023-06-14T10:10:21;26.80;33.80
45104;DHT22;30865;51.288;4.572;2023-06-14T10:12:46;26.60;33.90
45104;DHT22;30865;51.288;4.572;2023-06-14T10:15:19;26.00;32.70
45104;DHT22;30865;51.288;4.572;2023-06-14T10:17:59;26.00;31.70
45104;DHT22;30865;51.288;4.572;2023-06-14T10:23:13;26.10;32.10
45104;DHT22;30865;51.288;4.572;2023-06-14T10:25:42;26.70;32.10
45104;DHT22;30865;51.288;4.572;2023-06-14T10:28:19;26.80;33.10
45104;DHT22;30865;51.288;4.572;2023-06-14T10:31:11;25.90;33.20
45104;DHT22;30865;51.288;4.572;2023-06-14T10:33:50;26.50;32.90
45104;DHT22;30865;51.288;4.572;2023-06-14T10:39:09;25.70;33.50
45104;DHT22;30865;51.288;4.572;2023-06-14T10:41:37;26.00;34.10
45104;DHT22;30865;51.288;4.572;2023-06-14T10:46:39;26.40;33.00
45104;DHT22;30865;51.288;4.572;2023-06-14T10:49:04;26.60;32.90
45104;DHT22;30865;51.288;4.572;2023-06-14T10:51:39;26.70;32.40
45104;DHT22;30865;51.288;4.572;2023-06-14T10:54:15;27.10;31.60
45104;DHT22;30865;51.288;4.572;2023-06-14T10:56:51;26.70;31.40
45104;DHT22;30865;51.288;4.572;2023-06-14T10:59:18;27.40;30.80
45104;DHT22;30865;51.288;4.572;2023-06-14T11:04:49;27.50;30.70
45104;DHT22;30865;51.288;4.572;2023-06-14T11:10:21;27.30;31.80
45104;DHT22;30865;51.288;4.572;2023-06-14T11:12:54;27.00;30.90
45104;DHT22;30865;51.288;4.572;2023-06-14T11:15:20;27.00;30.60
45104;DHT22;30865;51.288;4.572;2023-06-14T11:17:52;27.10;32.50
45104;DHT22;30865;51.288;4.572;2023-06-14T11:20:25;27.30;31.80
45104;DHT22;30865;51.288;4.572;2023-06-14T11:22:51;27.00;31.80
45104;DHT22;30865;51.288;4.572;2023-06-14T11:25:17;27.50;32.80
45104;DHT22;30865;51.288;4.572;2023-06-14T11:27:43;27.40;32.90
45104;DHT22;30865;51.288;4.572;2023-06-14T11:30:09;26.90;32.90
45104;DHT22;30865;51.288;4.572;2023-06-14T11:32:36;27.10;33.20
45104;DHT22;30865;51.288;4.572;2023-06-14T11:35:03;27.60;33.00
45104;DHT22;30865;51.288;4.572;2023-06-14T11:37:30;27.20;31.70
45104;DHT22;30865;51.288;4.572;2023-06-14T11:40:03;27.30;31.40
45104;DHT22;30865;51.288;4.572;2023-06-14T11:42:31;26.30;31.90
45104;DHT22;30865;51.288;4.572;2023-06-14T11:44:57;26.30;33.60
45104;DHT22;30865;51.288;4.572;2023-06-14T11:47:22;26.60;33.50
45104;DHT22;30865;51.288;4.572;2023-06-14T11:49:48;26.90;33.10
45104;DHT22;30865;51.288;4.572;2023-06-14T11:52:14;26.80;31.90
45104;DHT22;30865;51.288;4.572;2023-06-14T11:54:40;26.90;32.40
45104;DHT22;30865;51.288;4.572;2023-06-14T11:57:07;27.00;31.60
45104;DHT22;30865;51.288;4.572;2023-06-14T11:59:38;27.70;31.50
45104;DHT22;30865;51.288;4.572;2023-06-14T12:02:04;27.80;30.80
45104;DHT22;30865;51.288;4.572;2023-06-14T12:04:29;28.50;30.20
45104;DHT22;30865;51.288;4.572;2023-06-14T12:06:55;28.70;30.00
45104;DHT22;30865;51.288;4.572;2023-06-14T12:09:23;28.40;29.70
45104;DHT22;30865;51.288;4.572;2023-06-14T12:11:51;28.40;29.90
45104;DHT22;30865;51.288;4.572;2023-06-14T12:14:28;28.20;30.20
45104;DHT22;30865;51.288;4.572;2023-06-14T12:17:03;27.50;30.90
45104;DHT22;30865;51.288;4.572;2023-06-14T12:19:28;27.20;31.60
45104;DHT22;30865;51.288;4.572;2023-06-14T12:21:59;27.20;31.70
45104;DHT22;30865;51.288;4.572;2023-06-14T12:24:28;26.80;32.10
45104;DHT22;30865;51.288;4.572;2023-06-14T12:26:54;27.20;31.70
45104;DHT22;30865;51.288;4.572;2023-06-14T12:29:20;27.30;32.20
45104;DHT22;30865;51.288;4.572;2023-06-14T12:31:45;27.70;31.30
45104;DHT22;30865;51.288;4.572;2023-06-14T12:34:11;27.50;30.90
45104;DHT22;30865;51.288;4.572;2023-06-14T12:36:36;27.40;31.10
45104;DHT22;30865;51.288;4.572;2023-06-14T12:39:07;26.80;31.50
45104;DHT22;30865;51.288;4.572;2023-06-14T12:41:33;27.20;31.50
45104;DHT22;30865;51.288;4.572;2023-06-14T12:43:59;26.80;31.80
45104;DHT22;30865;51.288;4.572;2023-06-14T12:46:30;27.00;31.60
45104;DHT22;30865;51.288;4.572;2023-06-14T12:48:56;28.10;30.90
45104;DHT22;30865;51.288;4.572;2023-06-14T12:51:22;27.90;30.70
45104;DHT22;30865;51.288;4.572;2023-06-14T12:53:48;28.20;31.10
45104;DHT22;30865;51.288;4.572;2023-06-14T12:56:14;27.60;31.60
45104;DHT22;30865;51.288;4.572;2023-06-14T12:58:41;28.00;31.00
45104;DHT22;30865;51.288;4.572;2023-06-14T13:01:06;27.30;31.00
45104;DHT22;30865;51.288;4.572;2023-06-14T13:03:32;27.30;31.80
45104;DHT22;30865;51.288;4.572;2023-06-14T13:05:59;28.10;31.80
45104;DHT22;30865;51.288;4.572;2023-06-14T13:08:24;28.30;31.10
45104;DHT22;30865;51.288;4.572;2023-06-14T13:10:50;27.80;31.10
45104;DHT22;30865;51.288;4.572;2023-06-14T13:13:15;27.20;31.70
45104;DHT22;30865;51.288;4.572;2023-06-14T13:15:41;26.90;32.10
45104;DHT22;30865;51.288;4.572;2023-06-14T13:18:11;26.70;32.60
45104;DHT22;30865;51.288;4.572;2023-06-14T13:20:38;27.20;32.40
45104;DHT22;30865;51.288;4.572;2023-06-14T13:23:04;27.60;32.00
45104;DHT22;30865;51.288;4.572;2023-06-14T13:25:31;27.40;32.20
45104;DHT22;30865;51.288;4.572;2023-06-14T13:27:57;27.50;31.90
45104;DHT22;30865;51.288;4.572;2023-06-14T13:30:22;28.30;31.10
45104;DHT22;30865;51.288;4.572;2023-06-14T13:32:48;29.00;30.10
45104;DHT22;30865;51.288;4.572;2023-06-14T13:35:14;28.80;30.00
45104;DHT22;30865;51.288;4.572;2023-06-14T13:37:39;28.10;31.10
45104;DHT22;30865;51.288;4.572;2023-06-14T13:40:05;28.40;30.80
45104;DHT22;30865;51.288;4.572;2023-06-14T13:42:31;28.70;30.40
45104;DHT22;30865;51.288;4.572;2023-06-14T13:44:58;28.00;30.20
45104;DHT22;30865;51.288;4.572;2023-06-14T13:47:23;28.60;30.70
45104;DHT22;30865;51.288;4.572;2023-06-14T13:49:49;27.90;32.00
45104;DHT22;30865;51.288;4.572;2023-06-14T13:52:15;27.50;31.90
45104;DHT22;30865;51.288;4.572;2023-06-14T13:54:41;26.60;32.40
45104;DHT22;30865;51.288;4.572;2023-06-14T13:57:07;27.00;32.90
45104;DHT22;30865;51.288;4.572;2023-06-14T13:59:33;26.80;32.50
45104;DHT22;30865;51.288;4.572;2023-06-14T14:01:58;27.80;31.70
45104;DHT22;30865;51.288;4.572;2023-06-14T14:04:24;28.80;31.30
45104;DHT22;30865;51.288;4.572;2023-06-14T14:06:50;27.80;31.80
45104;DHT22;30865;51.288;4.572;2023-06-14T14:09:15;27.00;32.80
45104;DHT22;30865;51.288;4.572;2023-06-14T14:11:41;26.70;33.60
45104;DHT22;30865;51.288;4.572;2023-06-14T14:14:07;26.80;33.70
45104;DHT22;30865;51.288;4.572;2023-06-14T14:16:33;26.50;34.00
45104;DHT22;30865;51.288;4.572;2023-06-14T14:19:00;26.30;33.80
45104;DHT22;30865;51.288;4.572;2023-06-14T14:21:27;26.40;33.90
45104;DHT22;30865;51.288;4.572;2023-06-14T14:23:52;26.00;34.30
45104;DHT22;30865;51.288;4.572;2023-06-14T14:26:18;26.90;33.90
45104;DHT22;30865;51.288;4.572;2023-06-14T14:28:44;26.40;33.70
45104;DHT22;30865;51.288;4.572;2023-06-14T14:31:12;26.90;33.70
45104;DHT22;30865;51.288;4.572;2023-06-14T14:33:38;27.40;32.90
45104;DHT22;30865;51.288;4.572;2023-06-14T14:36:04;27.60;32.20
45104;DHT22;30865;51.288;4.572;2023-06-14T14:38:31;28.60;30.70
45104;DHT22;30865;51.288;4.572;2023-06-14T14:40:56;28.70;29.50
45104;DHT22;30865;51.288;4.572;2023-06-14T14:43:22;29.40;28.50
45104;DHT22;30865;51.288;4.572;2023-06-14T14:45:47;30.60;28.70
45104;DHT22;30865;51.288;4.572;2023-06-14T14:48:13;30.00;28.60
45104;DHT22;30865;51.288;4.572;2023-06-14T14:50:38;29.00;29.00
45104;DHT22;30865;51.288;4.572;2023-06-14T14:53:05;29.40;29.40
45104;DHT22;30865;51.288;4.572;2023-06-14T14:55:31;29.10;29.50
45104;DHT22;30865;51.288;4.572;2023-06-14T14:57:57;27.90;30.50
45104;DHT22;30865;51.288;4.572;2023-06-14T15:00:23;29.50;30.10
45104;DHT22;30865;51.288;4.572;2023-06-14T15:02:48;29.70;29.60
45104;DHT22;30865;51.288;4.572;2023-06-14T15:05:14;30.10;29.00
45104;DHT22;30865;51.288;4.572;2023-06-14T15:07:39;29.60;28.70
45104;DHT22;30865;51.288;4.572;2023-06-14T15:10:06;30.70;28.60
45104;DHT22;30865;51.288;4.572;2023-06-14T15:12:32;30.60;28.20
45104;DHT22;30865;51.288;4.572;2023-06-14T15:14:57;30.10;28.80
45104;DHT22;30865;51.288;4.572;2023-06-14T15:17:23;29.40;29.50
45104;DHT22;30865;51.288;4.572;2023-06-14T15:19:50;28.40;30.00
45104;DHT22;30865;51.288;4.572;2023-06-14T15:22:16;28.00;31.00
45104;DHT22;30865;51.288;4.572;2023-06-14T15:24:42;28.10;31.20
45104;DHT22;30865;51.288;4.572;2023-06-14T15:27:07;28.10;31.30
45104;DHT22;30865;51.288;4.572;2023-06-14T15:29:33;27.50;31.40
45104;DHT22;30865;51.288;4.572;2023-06-14T15:32:01;27.50;32.00
45104;DHT22;30865;51.288;4.572;2023-06-14T15:34:29;28.80;30.70
45104;DHT22;30865;51.288;4.572;2023-06-14T15:36:57;28.90;30.40
45104;DHT22;30865;51.288;4.572;2023-06-14T15:39:23;29.20;30.00
45104;DHT22;30865;51.288;4.572;2023-06-14T15:41:49;28.60;29.70
45104;DHT22;30865;51.288;4.572;2023-06-14T15:44:16;29.40;30.00